Time;durP1;ratioP1;P1;durP2;ratioP2;P2;SDS_P1;SDS_P2;PMS_P1;PMS_P2;Temp;Humidity;BMP_temperature;BMP_pressure;BME280_temperature;BME280_humidity;BME280_pressure;Samples;Min_cycle;Max_cycle;Signal;HPM_P1;HPM_P2
2021/11/27 00:01:48;;;;;;;;;;;23.20;51.40;;;;;;1509426;77;818;-64
2021/11/27 00:03:53;;;;;;;;;;;23.20;51.50;;;;;;1505532;78;1192;-67
2021/11/27 00:05:54;;;;;;;;;;;23.20;51.40;;;;;;1501942;78;1648;-65
2021/11/27 00:07:56;;;;;;;;;;;23.10;51.70;;;;;;1508124;78;705;-65
2021/11/27 00:09:58;;;;;;;;;;;23.30;51.70;;;;;;1503865;78;850;-64
2021/11/27 00:12:00;;;;;;;;;;;23.20;51.50;;;;;;1512021;78;1933;-64
2021/11/27 00:14:02;;;;;;;;;;;23.30;51.50;;;;;;1503905;78;1133;-63
2021/11/27 00:16:04;;;;;;;;;;;23.30;51.50;;;;;;1508900;78;949;-65
2021/11/27 00:18:06;;;;;;;;;;;23.30;51.50;;;;;;1508133;78;675;-64
2021/11/27 00:20:09;;;;;;;;;;;23.30;51.40;;;;;;1508795;78;791;-63
2021/11/27 00:22:11;;;;;;;;;;;23.30;51.40;;;;;;1506916;78;889;-65
2021/11/27 00:24:13;;;;;;;;;;;23.30;51.40;;;;;;1506094;78;1165;-65
2021/11/27 00:26:15;;;;;;;;;;;23.30;51.40;;;;;;1509205;78;830;-63
2021/11/27 00:28:17;;;;;;;;;;;23.30;51.40;;;;;;1503741;78;765;-63
2021/11/27 00:30:21;;;;;;;;;;;23.30;51.30;;;;;;1508212;78;746;-64
2021/11/27 00:32:23;;;;;;;;;;;23.30;51.40;;;;;;1512339;78;1928;-63
2021/11/27 00:34:25;;;;;;;;;;;23.30;51.50;;;;;;1504247;78;1144;-64
2021/11/27 00:36:27;;;;;;;;;;;23.30;51.50;;;;;;1515755;77;745;-63
2021/11/27 00:38:29;;;;;;;;;;;23.30;51.60;;;;;;1504981;78;754;-64
2021/11/27 00:40:31;;;;;;;;;;;23.30;51.70;;;;;;1507943;78;730;-64
2021/11/27 00:42:32;;;;;;;;;;;23.30;51.70;;;;;;1504067;78;736;-64
2021/11/27 00:44:34;;;;;;;;;;;23.20;51.50;;;;;;1508606;78;1129;-63
2021/11/27 00:46:36;;;;;;;;;;;23.30;51.60;;;;;;1507746;78;740;-63
2021/11/27 00:48:38;;;;;;;;;;;23.30;51.60;;;;;;1504166;78;760;-63
2021/11/27 00:50:42;;;;;;;;;;;23.30;51.70;;;;;;1509338;78;786;-64
2021/11/27 00:52:43;;;;;;;;;;;23.20;51.60;;;;;;1512471;78;1926;-63
2021/11/27 00:54:45;;;;;;;;;;;23.30;51.70;;;;;;1513441;78;1120;-64
2021/11/27 00:56:48;;;;;;;;;;;23.30;51.60;;;;;;1509337;77;783;-64
2021/11/27 00:58:50;;;;;;;;;;;23.20;51.60;;;;;;1504221;78;839;-64
2021/11/27 01:00:53;;;;;;;;;;;23.30;51.60;;;;;;1505281;78;804;-65
2021/11/27 01:02:55;;;;;;;;;;;23.30;51.50;;;;;;1511518;77;716;-64
2021/11/27 01:04:57;;;;;;;;;;;23.30;51.50;;;;;;1510579;78;1164;-64
2021/11/27 01:06:59;;;;;;;;;;;23.30;51.60;;;;;;1508458;78;740;-63
2021/11/27 01:09:01;;;;;;;;;;;23.30;51.60;;;;;;1508203;78;724;-63
2021/11/27 01:11:05;;;;;;;;;;;23.30;51.60;;;;;;1507284;78;775;-63
2021/11/27 01:13:07;;;;;;;;;;;23.30;51.60;;;;;;1506024;77;1946;-64
2021/11/27 01:15:09;;;;;;;;;;;23.30;51.60;;;;;;1507703;78;1087;-65
2021/11/27 01:17:12;;;;;;;;;;;23.30;51.50;;;;;;1508568;78;799;-62
2021/11/27 01:19:14;;;;;;;;;;;23.30;51.50;;;;;;1508431;78;864;-62
2021/11/27 01:21:16;;;;;;;;;;;23.30;51.50;;;;;;1509070;78;702;-60
2021/11/27 01:23:18;;;;;;;;;;;23.30;51.50;;;;;;1512537;78;1153;-63
2021/11/27 01:25:20;;;;;;;;;;;23.30;51.50;;;;;;1510648;78;776;-64
2021/11/27 01:27:24;;;;;;;;;;;23.30;51.50;;;;;;1508187;78;729;-64
2021/11/27 01:29:25;;;;;;;;;;;23.30;51.50;;;;;;1504323;78;660;-66
2021/11/27 01:31:27;;;;;;;;;;;23.30;51.50;;;;;;1504317;78;744;-65
2021/11/27 01:33:29;;;;;;;;;;;23.30;51.50;;;;;;1508145;78;1946;-64
2021/11/27 01:35:31;;;;;;;;;;;23.30;51.50;;;;;;1511730;77;733;-63
2021/11/27 01:37:34;;;;;;;;;;;23.30;51.40;;;;;;1514330;78;673;-64
2021/11/27 01:39:35;;;;;;;;;;;23.30;51.40;;;;;;1522785;78;659;-64
2021/11/27 01:41:38;;;;;;;;;;;23.30;51.40;;;;;;1522972;78;859;-66
2021/11/27 01:43:40;;;;;;;;;;;23.30;51.50;;;;;;1522611;78;1146;-65
2021/11/27 01:45:42;;;;;;;;;;;23.30;51.50;;;;;;1522867;78;670;-63
2021/11/27 01:47:48;;;;;;;;;;;23.30;51.50;;;;;;1523116;78;736;-63
2021/11/27 01:49:50;;;;;;;;;;;23.30;51.50;;;;;;1522804;78;674;-65
2021/11/27 01:51:52;;;;;;;;;;;23.30;51.60;;;;;;1522151;78;732;-64
2021/11/27 01:53:55;;;;;;;;;;;23.20;51.50;;;;;;1523017;78;1934;-63
2021/11/27 01:56:00;;;;;;;;;;;23.30;51.60;;;;;;1522532;78;778;-63
2021/11/27 01:58:01;;;;;;;;;;;23.20;51.50;;;;;;1522907;78;1535;-60
2021/11/27 02:00:04;;;;;;;;;;;23.30;51.60;;;;;;1523173;77;782;-63
2021/11/27 02:02:07;;;;;;;;;;;23.30;51.60;;;;;;1530286;77;757;-64
2021/11/27 02:04:09;;;;;;;;;;;23.30;51.60;;;;;;1523043;77;1206;-63
2021/11/27 02:06:11;;;;;;;;;;;23.30;51.70;;;;;;1523006;78;787;-64
2021/11/27 02:08:13;;;;;;;;;;;23.20;51.50;;;;;;1522748;78;739;-64
2021/11/27 02:10:15;;;;;;;;;;;23.30;51.70;;;;;;1522628;77;707;-63
2021/11/27 02:12:17;;;;;;;;;;;23.20;51.60;;;;;;1522943;78;1933;-63
2021/11/27 02:14:19;;;;;;;;;;;23.20;51.50;;;;;;1522795;78;1120;-63
2021/11/27 02:16:21;;;;;;;;;;;23.20;51.50;;;;;;1523125;78;756;-65
2021/11/27 02:18:23;;;;;;;;;;;23.30;51.50;;;;;;1520741;78;685;-64
2021/11/27 02:20:25;;;;;;;;;;;23.30;51.60;;;;;;1530176;77;698;-65
2021/11/27 02:22:27;;;;;;;;;;;23.30;51.60;;;;;;1531756;77;804;-62
2021/11/27 02:24:29;;;;;;;;;;;23.20;51.60;;;;;;1529247;77;1142;-64
2021/11/27 02:26:32;;;;;;;;;;;23.20;51.50;;;;;;1526477;77;737;-63
2021/11/27 02:28:34;;;;;;;;;;;23.20;51.50;;;;;;1548724;77;769;-64
2021/11/27 02:30:37;;;;;;;;;;;23.30;51.60;;;;;;1547098;77;751;-63
2021/11/27 02:32:39;;;;;;;;;;;23.20;51.50;;;;;;1521298;78;1905;-63
2021/11/27 02:34:41;;;;;;;;;;;23.20;51.50;;;;;;1522865;77;1121;-63
2021/11/27 02:36:44;;;;;;;;;;;23.20;51.50;;;;;;1521343;78;737;-63
2021/11/27 02:38:46;;;;;;;;;;;23.20;51.50;;;;;;1521551;78;671;-64
2021/11/27 02:40:48;;;;;;;;;;;23.30;51.50;;;;;;1521684;77;806;-63
2021/11/27 02:42:49;;;;;;;;;;;23.30;51.50;;;;;;1522836;78;781;-65
2021/11/27 02:44:51;;;;;;;;;;;23.20;51.40;;;;;;1523088;78;1131;-64
2021/11/27 02:46:53;;;;;;;;;;;23.20;51.50;;;;;;1523131;78;765;-63
2021/11/27 02:48:55;;;;;;;;;;;23.10;51.50;;;;;;1522663;78;703;-64
2021/11/27 02:50:57;;;;;;;;;;;23.20;51.50;;;;;;1523137;77;710;-64
2021/11/27 02:52:59;;;;;;;;;;;23.30;51.60;;;;;;1522871;78;1932;-65
2021/11/27 02:55:01;;;;;;;;;;;23.30;51.60;;;;;;1522498;78;1111;-65
2021/11/27 02:57:04;;;;;;;;;;;23.20;51.50;;;;;;1535291;77;803;-65
2021/11/27 02:59:10;;;;;;;;;;;23.20;51.50;;;;;;1548727;77;712;-64
2021/11/27 03:01:12;;;;;;;;;;;23.20;51.50;;;;;;1548565;77;648;-65
2021/11/27 03:03:14;;;;;;;;;;;23.20;51.50;;;;;;1548549;75;653;-64
2021/11/27 03:05:16;;;;;;;;;;;23.30;51.50;;;;;;1524068;77;789;-64
2021/11/27 03:07:18;;;;;;;;;;;23.30;51.50;;;;;;1522954;78;662;-64
2021/11/27 03:09:20;;;;;;;;;;;23.30;51.50;;;;;;1523028;78;849;-65
2021/11/27 03:11:22;;;;;;;;;;;23.30;51.60;;;;;;1522865;78;742;-63
2021/11/27 03:13:27;;;;;;;;;;;23.20;51.50;;;;;;1522419;78;1938;-66
2021/11/27 03:15:30;;;;;;;;;;;23.20;51.50;;;;;;1497984;79;761;-64
2021/11/27 03:17:32;;;;;;;;;;;23.20;51.50;;;;;;1497675;79;762;-64
2021/11/27 03:19:35;;;;;;;;;;;23.20;51.50;;;;;;1498113;78;686;-61
2021/11/27 03:21:37;;;;;;;;;;;23.20;51.50;;;;;;1497908;78;719;-65
2021/11/27 03:23:39;;;;;;;;;;;23.30;51.60;;;;;;1534764;77;1151;-65
2021/11/27 03:25:41;;;;;;;;;;;23.20;51.50;;;;;;1521824;77;724;-63
2021/11/27 03:27:43;;;;;;;;;;;23.20;51.50;;;;;;1521791;77;824;-63
2021/11/27 03:29:44;;;;;;;;;;;23.20;51.50;;;;;;1522969;77;723;-64
2021/11/27 03:31:46;;;;;;;;;;;23.20;51.40;;;;;;1527686;77;768;-63
2021/11/27 03:33:48;;;;;;;;;;;23.20;51.40;;;;;;1521484;78;1946;-60
2021/11/27 03:35:50;;;;;;;;;;;23.20;51.30;;;;;;1524442;77;801;-63
2021/11/27 03:37:52;;;;;;;;;;;23.20;51.40;;;;;;1523143;77;673;-63
2021/11/27 03:39:54;;;;;;;;;;;23.20;51.30;;;;;;1523011;78;777;-66
2021/11/27 03:41:56;;;;;;;;;;;23.20;51.30;;;;;;1522822;78;696;-64
2021/11/27 03:43:57;;;;;;;;;;;23.30;51.30;;;;;;1521788;77;1162;-64
2021/11/27 03:46:00;;;;;;;;;;;23.30;51.30;;;;;;1522103;78;724;-65
2021/11/27 03:48:09;;;;;;;;;;;23.40;51.30;;;;;;1522907;78;723;-64
2021/11/27 03:50:11;;;;;;;;;;;23.30;51.30;;;;;;1522256;78;1073;-65
2021/11/27 03:52:13;;;;;;;;;;;23.40;51.10;;;;;;1522708;78;693;-65
2021/11/27 03:54:15;;;;;;;;;;;23.30;51.10;;;;;;1537023;74;222603;-69
2021/11/27 03:56:18;;;;;;;;;;;23.40;51.00;;;;;;1532515;77;724;-70
2021/11/27 03:58:20;;;;;;;;;;;23.50;51.00;;;;;;1546207;75;716;-71
2021/11/27 04:00:22;;;;;;;;;;;23.40;51.00;;;;;;1557927;75;719;-70
2021/11/27 04:02:24;;;;;;;;;;;23.40;50.90;;;;;;1585566;75;589;-70
2021/11/27 04:04:26;;;;;;;;;;;23.40;50.90;;;;;;1604358;74;1125;-70
2021/11/27 04:06:28;;;;;;;;;;;23.50;51.00;;;;;;1604023;74;708;-70
2021/11/27 04:08:29;;;;;;;;;;;23.50;50.90;;;;;;1557917;74;225548;-60
2021/11/27 04:10:31;;;;;;;;;;;23.50;50.80;;;;;;1597085;74;679;-60
2021/11/27 04:12:34;;;;;;;;;;;23.50;50.80;;;;;;1597510;74;678;-60
2021/11/27 04:14:36;;;;;;;;;;;23.50;50.80;;;;;;1596524;73;1895;-57
2021/11/27 04:16:38;;;;;;;;;;;23.50;50.70;;;;;;1597285;74;1155;-59
2021/11/27 04:18:40;;;;;;;;;;;23.50;50.60;;;;;;1597795;74;751;-59
2021/11/27 04:20:42;;;;;;;;;;;23.60;50.60;;;;;;1597629;74;773;-58
2021/11/27 04:22:44;;;;;;;;;;;23.50;50.60;;;;;;1597763;74;761;-59
2021/11/27 04:24:46;;;;;;;;;;;23.50;50.60;;;;;;1581464;74;786;-59
2021/11/27 04:26:47;;;;;;;;;;;23.40;50.50;;;;;;1570528;76;1117;-59
2021/11/27 04:28:49;;;;;;;;;;;23.30;50.70;;;;;;1570901;76;753;-57
2021/11/27 04:30:51;;;;;;;;;;;23.30;50.70;;;;;;1570611;74;812;-56
2021/11/27 04:32:53;;;;;;;;;;;23.30;50.80;;;;;;1564364;76;789;-56
2021/11/27 04:34:55;;;;;;;;;;;23.40;50.70;;;;;;1564977;75;1946;-58
2021/11/27 04:36:57;;;;;;;;;;;23.40;50.70;;;;;;1570787;76;1141;-59
2021/11/27 04:38:59;;;;;;;;;;;23.30;50.60;;;;;;1570384;76;763;-60
2021/11/27 04:41:02;;;;;;;;;;;23.40;50.60;;;;;;1570794;76;713;-59
2021/11/27 04:43:04;;;;;;;;;;;23.40;50.60;;;;;;1570478;74;782;-56
2021/11/27 04:45:06;;;;;;;;;;;23.40;50.50;;;;;;1570462;76;776;-58
2021/11/27 04:47:08;;;;;;;;;;;23.40;50.70;;;;;;1570654;76;1122;-57
2021/11/27 04:49:10;;;;;;;;;;;23.30;50.80;;;;;;1570777;76;770;-58
2021/11/27 04:51:11;;;;;;;;;;;23.30;50.70;;;;;;1570447;76;711;-59
2021/11/27 04:53:14;;;;;;;;;;;23.30;50.70;;;;;;1570443;74;1934;-59
2021/11/27 04:55:15;;;;;;;;;;;23.30;50.70;;;;;;1570442;74;743;-59
2021/11/27 04:57:17;;;;;;;;;;;23.40;50.70;;;;;;1586200;75;1108;-59
2021/11/27 04:59:21;;;;;;;;;;;23.40;50.60;;;;;;1591105;75;675;-59
2021/11/27 05:01:23;;;;;;;;;;;23.40;50.50;;;;;;1562446;76;1455;-56
2021/11/27 05:03:25;;;;;;;;;;;23.50;50.50;;;;;;1588674;74;686;-56
2021/11/27 05:05:27;;;;;;;;;;;23.50;50.40;;;;;;1570803;76;885;-56
2021/11/27 05:07:29;;;;;;;;;;;23.50;50.30;;;;;;1570701;76;1110;-59
2021/11/27 05:09:31;;;;;;;;;;;23.50;50.50;;;;;;1570451;76;784;-59
2021/11/27 05:11:33;;;;;;;;;;;23.50;50.50;;;;;;1570823;76;724;-59
2021/11/27 05:13:39;;;;;;;;;;;23.50;50.50;;;;;;1570066;74;1938;-58
2021/11/27 05:15:38;;;;;;;;;;;23.50;50.30;;;;;;1569952;75;1611;-57
2021/11/27 05:17:40;;;;;;;;;;;23.60;50.20;;;;;;1570833;76;737;-56
2021/11/27 05:19:42;;;;;;;;;;;23.60;50.10;;;;;;1570507;76;848;-60
2021/11/27 05:21:44;;;;;;;;;;;23.60;50.10;;;;;;1570472;74;586;-58
2021/11/27 05:23:46;;;;;;;;;;;23.60;50.10;;;;;;1570721;76;771;-59
2021/11/27 05:25:47;;;;;;;;;;;23.60;50.00;;;;;;1570139;74;1145;-59
2021/11/27 05:27:49;;;;;;;;;;;23.60;50.00;;;;;;1570639;76;891;-57
2021/11/27 05:29:51;;;;;;;;;;;23.60;50.00;;;;;;1570783;76;635;-57
2021/11/27 05:32:00;;;;;;;;;;;23.60;50.00;;;;;;1569867;76;783;-58
2021/11/27 05:36:06;;;;;;;;;;;23.60;50.00;;;;;;1570320;75;1065;-58
2021/11/27 05:38:09;;;;;;;;;;;23.60;50.00;;;;;;1570091;76;634;-57
2021/11/27 05:40:11;;;;;;;;;;;23.60;50.00;;;;;;1564695;76;664;-59
2021/11/27 05:42:13;;;;;;;;;;;23.60;50.00;;;;;;1564345;75;723;-56
2021/11/27 05:44:15;;;;;;;;;;;23.60;50.00;;;;;;1570252;76;663;-59
2021/11/27 05:46:17;;;;;;;;;;;23.60;50.10;;;;;;1570646;76;1120;-59
2021/11/27 05:48:19;;;;;;;;;;;23.60;50.10;;;;;;1570645;76;705;-59
2021/11/27 05:50:20;;;;;;;;;;;23.50;50.20;;;;;;1570209;74;666;-58
2021/11/27 05:52:22;;;;;;;;;;;23.50;50.20;;;;;;1570620;76;799;-56
2021/11/27 05:54:24;;;;;;;;;;;23.50;50.20;;;;;;1570225;74;1938;-58
2021/11/27 05:56:26;;;;;;;;;;;23.50;50.30;;;;;;1569841;74;1132;-59
2021/11/27 05:58:28;;;;;;;;;;;23.60;50.20;;;;;;1571800;74;796;-59
2021/11/27 06:00:30;;;;;;;;;;;23.60;50.20;;;;;;1603383;73;739;-59
2021/11/27 06:02:32;;;;;;;;;;;23.50;50.30;;;;;;1603333;74;751;-58
2021/11/27 06:04:34;;;;;;;;;;;23.60;50.20;;;;;;1582862;74;731;-59
2021/11/27 06:06:36;;;;;;;;;;;23.60;50.20;;;;;;1570120;76;1069;-58
2021/11/27 06:08:38;;;;;;;;;;;23.60;50.20;;;;;;1570688;76;671;-57
2021/11/27 06:10:39;;;;;;;;;;;23.60;50.20;;;;;;1570657;76;797;-56
2021/11/27 06:12:41;;;;;;;;;;;23.60;50.20;;;;;;1569855;74;768;-59
2021/11/27 06:14:43;;;;;;;;;;;23.60;50.30;;;;;;1570565;76;1942;-59
2021/11/27 06:16:45;;;;;;;;;;;23.60;50.30;;;;;;1570598;76;1165;-59
2021/11/27 06:18:47;;;;;;;;;;;23.60;50.20;;;;;;1570335;76;763;-59
2021/11/27 06:20:49;;;;;;;;;;;23.60;50.20;;;;;;1570472;74;698;-58
2021/11/27 06:22:51;;;;;;;;;;;23.60;50.20;;;;;;1570595;76;705;-58
2021/11/27 06:24:53;;;;;;;;;;;23.60;50.20;;;;;;1570017;74;668;-56
2021/11/27 06:26:54;;;;;;;;;;;23.50;50.20;;;;;;1570559;76;1128;-56
2021/11/27 06:28:56;;;;;;;;;;;23.60;50.30;;;;;;1570483;76;748;-60
2021/11/27 06:30:58;;;;;;;;;;;23.60;50.30;;;;;;1570094;74;766;-57
2021/11/27 06:33:00;;;;;;;;;;;23.50;50.30;;;;;;1542229;76;809;-60
2021/11/27 06:35:02;;;;;;;;;;;23.60;50.40;;;;;;1571997;74;1950;-59
2021/11/27 06:37:04;;;;;;;;;;;23.60;50.40;;;;;;1568280;75;1133;-59
2021/11/27 06:39:06;;;;;;;;;;;23.60;50.40;;;;;;1568524;76;736;-58
2021/11/27 06:41:08;;;;;;;;;;;23.60;50.40;;;;;;1570854;74;640;-57
2021/11/27 06:43:10;;;;;;;;;;;23.60;50.30;;;;;;1581027;75;649;-57
2021/11/27 06:45:11;;;;;;;;;;;23.70;50.40;;;;;;1581138;75;825;-59
2021/11/27 06:47:17;;;;;;;;;;;23.60;50.40;;;;;;1580788;75;1132;-59
2021/11/27 06:49:19;;;;;;;;;;;23.60;50.40;;;;;;1581348;75;672;-58
2021/11/27 06:51:21;;;;;;;;;;;23.60;50.50;;;;;;1581109;74;945;-59
2021/11/27 06:53:23;;;;;;;;;;;23.60;50.50;;;;;;1580781;75;717;-59
2021/11/27 06:55:25;;;;;;;;;;;23.50;50.60;;;;;;1580857;74;1909;-58
2021/11/27 06:57:27;;;;;;;;;;;23.50;50.60;;;;;;1569170;75;1101;-58
2021/11/27 06:59:29;;;;;;;;;;;23.60;50.60;;;;;;1566783;76;794;-57
2021/11/27 07:01:30;;;;;;;;;;;23.60;50.50;;;;;;1567205;76;774;-59
2021/11/27 07:03:32;;;;;;;;;;;23.60;50.60;;;;;;1573862;74;674;-58
2021/11/27 07:05:34;;;;;;;;;;;23.60;50.60;;;;;;1580762;75;800;-60
2021/11/27 07:07:36;;;;;;;;;;;23.60;50.60;;;;;;1581230;75;795;-59
2021/11/27 07:09:38;;;;;;;;;;;23.60;50.60;;;;;;1581210;75;737;-59
2021/11/27 07:11:40;;;;;;;;;;;23.60;50.60;;;;;;1580408;74;747;-57
2021/11/27 07:13:42;;;;;;;;;;;23.70;50.70;;;;;;1580932;75;693;-58
2021/11/27 07:15:44;;;;;;;;;;;23.60;50.70;;;;;;1580598;75;1942;-54
2021/11/27 07:17:45;;;;;;;;;;;23.40;51.00;;;;;;1579775;74;741;-58
2021/11/27 07:19:47;;;;;;;;;;;23.40;51.20;;;;;;1580075;74;729;-58
2021/11/27 07:21:49;;;;;;;;;;;23.50;51.10;;;;;;1580330;74;784;-58
2021/11/27 07:23:51;;;;;;;;;;;23.60;50.70;;;;;;1579816;74;729;-58
2021/11/27 07:25:53;;;;;;;;;;;23.60;50.60;;;;;;1579828;74;1156;-57
2021/11/27 07:27:55;;;;;;;;;;;23.60;50.60;;;;;;1579717;74;735;-58
2021/11/27 07:29:57;;;;;;;;;;;23.60;50.60;;;;;;1581154;74;730;-58
2021/11/27 07:31:59;;;;;;;;;;;23.60;50.70;;;;;;1579642;74;651;-56
2021/11/27 07:34:01;;;;;;;;;;;23.50;50.80;;;;;;1580587;74;676;-57
2021/11/27 07:36:02;;;;;;;;;;;23.60;50.80;;;;;;1577501;74;1936;-55
2021/11/27 07:38:04;;;;;;;;;;;23.50;50.90;;;;;;1577221;74;830;-56
2021/11/27 07:40:07;;;;;;;;;;;23.50;50.90;;;;;;1581136;74;752;-57
2021/11/27 07:42:09;;;;;;;;;;;23.50;51.00;;;;;;1579159;74;841;-59
2021/11/27 07:44:11;;;;;;;;;;;23.50;51.00;;;;;;1579341;74;736;-59
2021/11/27 07:46:13;;;;;;;;;;;23.50;51.00;;;;;;1579375;74;1147;-59
2021/11/27 07:48:14;;;;;;;;;;;23.50;51.00;;;;;;1579465;74;762;-57
2021/11/27 07:50:16;;;;;;;;;;;23.40;51.00;;;;;;1577375;74;743;-58
2021/11/27 07:52:21;;;;;;;;;;;23.40;51.00;;;;;;1580080;74;736;-58
2021/11/27 07:54:22;;;;;;;;;;;23.50;51.10;;;;;;1580917;74;1930;-55
2021/11/27 07:56:24;;;;;;;;;;;23.50;51.10;;;;;;1580328;74;1157;-58
2021/11/27 07:58:25;;;;;;;;;;;23.50;51.10;;;;;;1579913;74;764;-58
2021/11/27 08:00:27;;;;;;;;;;;23.50;51.20;;;;;;1579463;74;771;-58
2021/11/27 08:02:29;;;;;;;;;;;23.40;51.00;;;;;;1580788;74;1055;-58
2021/11/27 08:04:31;;;;;;;;;;;23.40;51.10;;;;;;1557994;75;775;-58
2021/11/27 08:06:33;;;;;;;;;;;23.50;51.30;;;;;;1581440;74;1136;-56
2021/11/27 08:08:35;;;;;;;;;;;23.50;51.30;;;;;;1582777;74;674;-56
2021/11/27 08:10:37;;;;;;;;;;;23.40;51.30;;;;;;1579943;74;779;-55
2021/11/27 08:12:39;;;;;;;;;;;23.50;51.40;;;;;;1580000;74;791;-59
2021/11/27 08:14:41;;;;;;;;;;;23.50;51.40;;;;;;1583055;74;1948;-57
2021/11/27 08:16:43;;;;;;;;;;;23.40;51.30;;;;;;1581679;74;1140;-58
2021/11/27 08:18:45;;;;;;;;;;;23.50;51.40;;;;;;1574947;74;813;-58
2021/11/27 08:20:49;;;;;;;;;;;23.40;51.50;;;;;;1580823;74;740;-58
2021/11/27 08:22:51;;;;;;;;;;;23.40;51.30;;;;;;1578683;74;1667;-59
2021/11/27 08:24:52;;;;;;;;;;;23.40;51.10;;;;;;1580622;74;765;-59
2021/11/27 08:26:54;;;;;;;;;;;23.50;51.20;;;;;;1577153;74;1143;-59
2021/11/27 08:28:56;;;;;;;;;;;23.50;51.10;;;;;;1580001;74;767;-58
2021/11/27 08:30:58;;;;;;;;;;;23.50;51.00;;;;;;1578930;74;741;-57
2021/11/27 08:33:00;;;;;;;;;;;23.50;50.90;;;;;;1581711;74;709;-59
2021/11/27 08:35:02;;;;;;;;;;;23.50;50.80;;;;;;1580339;74;1941;-58
2021/11/27 08:37:04;;;;;;;;;;;23.50;50.90;;;;;;1581146;74;1136;-59
2021/11/27 08:39:06;;;;;;;;;;;23.50;50.80;;;;;;1585154;74;805;-59
2021/11/27 08:41:08;;;;;;;;;;;23.50;50.80;;;;;;1576644;74;744;-56
2021/11/27 08:43:11;;;;;;;;;;;23.50;50.90;;;;;;1575179;74;679;-56
2021/11/27 08:45:13;;;;;;;;;;;23.40;50.80;;;;;;1581265;75;729;-59
2021/11/27 08:47:14;;;;;;;;;;;23.40;50.80;;;;;;1580837;75;1135;-59
2021/11/27 08:49:16;;;;;;;;;;;23.30;50.70;;;;;;1581326;75;696;-59
2021/11/27 08:51:18;;;;;;;;;;;23.30;50.80;;;;;;1581337;75;772;-58
2021/11/27 08:53:20;;;;;;;;;;;23.40;50.80;;;;;;1580621;74;694;-59
2021/11/27 08:55:22;;;;;;;;;;;23.30;50.80;;;;;;1581003;74;1937;-58
2021/11/27 08:57:24;;;;;;;;;;;23.30;50.80;;;;;;1579565;74;1115;-57
2021/11/27 08:59:26;;;;;;;;;;;23.30;50.80;;;;;;1577307;74;786;-56
2021/11/27 09:01:28;;;;;;;;;;;23.30;50.80;;;;;;1581229;74;795;-56
2021/11/27 09:03:30;;;;;;;;;;;23.30;50.70;;;;;;1581088;74;752;-59
2021/11/27 09:05:33;;;;;;;;;;;23.30;50.70;;;;;;1580667;74;743;-59
2021/11/27 09:07:35;;;;;;;;;;;23.20;50.70;;;;;;1570429;74;1256;-60
2021/11/27 09:09:37;;;;;;;;;;;23.20;50.70;;;;;;1580453;74;876;-56
2021/11/27 09:11:39;;;;;;;;;;;23.20;50.70;;;;;;1581259;74;794;-58
2021/11/27 09:13:42;;;;;;;;;;;23.30;50.70;;;;;;1584269;74;716;-57
2021/11/27 09:15:45;;;;;;;;;;;23.30;50.70;;;;;;1569924;74;1918;-59
2021/11/27 09:17:47;;;;;;;;;;;23.30;50.70;;;;;;1566173;75;707;-58
2021/11/27 09:19:49;;;;;;;;;;;23.20;50.60;;;;;;1570651;75;812;-56
2021/11/27 09:21:51;;;;;;;;;;;23.20;50.60;;;;;;1570007;75;737;-60
2021/11/27 09:23:53;;;;;;;;;;;23.20;50.60;;;;;;1570663;75;777;-60
2021/11/27 09:25:55;;;;;;;;;;;23.20;50.60;;;;;;1566377;74;1112;-57
2021/11/27 09:27:57;;;;;;;;;;;23.20;50.60;;;;;;1581964;75;713;-59
2021/11/27 09:29:59;;;;;;;;;;;23.20;50.60;;;;;;1567394;74;859;-59
2021/11/27 09:32:01;;;;;;;;;;;23.20;50.60;;;;;;1570123;75;714;-58
2021/11/27 09:34:03;;;;;;;;;;;23.20;50.60;;;;;;1565627;75;679;-59
2021/11/27 09:36:07;;;;;;;;;;;23.20;50.60;;;;;;1573848;75;1923;-59
2021/11/27 09:38:08;;;;;;;;;;;23.20;50.50;;;;;;1553487;76;1620;-57
2021/11/27 09:40:11;;;;;;;;;;;23.20;50.40;;;;;;1553506;76;553;-59
2021/11/27 09:42:16;;;;;;;;;;;23.20;50.40;;;;;;1554062;76;776;-60
2021/11/27 09:44:18;;;;;;;;;;;23.20;50.40;;;;;;1574893;74;727;-58
2021/11/27 09:46:20;;;;;;;;;;;23.20;50.30;;;;;;1580866;75;1202;-59
2021/11/27 09:48:22;;;;;;;;;;;23.20;49.60;;;;;;1581241;75;707;-59
2021/11/27 09:50:24;;;;;;;;;;;23.10;47.70;;;;;;1581080;75;648;-57
2021/11/27 09:52:25;;;;;;;;;;;23.10;48.60;;;;;;1575326;74;652;-59
2021/11/27 09:54:27;;;;;;;;;;;23.10;48.70;;;;;;1581306;74;726;-56
2021/11/27 09:56:29;;;;;;;;;;;23.10;48.90;;;;;;1583077;75;1934;-59
2021/11/27 09:58:31;;;;;;;;;;;23.10;48.90;;;;;;1583770;74;763;-60
2021/11/27 10:00:33;;;;;;;;;;;23.10;48.90;;;;;;1581356;75;783;-57
2021/11/27 10:02:35;;;;;;;;;;;23.10;49.00;;;;;;1580592;75;771;-56
2021/11/27 10:04:38;;;;;;;;;;;23.10;49.00;;;;;;1580651;74;762;-58
2021/11/27 10:06:41;;;;;;;;;;;23.10;49.10;;;;;;1576134;74;1120;-60
2021/11/27 10:08:43;;;;;;;;;;;23.10;49.10;;;;;;1580203;74;750;-59
2021/11/27 10:10:45;;;;;;;;;;;23.10;49.10;;;;;;1580638;74;756;-57
2021/11/27 10:12:47;;;;;;;;;;;23.10;49.20;;;;;;1580898;74;798;-56
2021/11/27 10:14:49;;;;;;;;;;;23.10;49.20;;;;;;1580500;74;776;-58
2021/11/27 10:17:01;;;;;;;;;;;23.00;49.30;;;;;;1580291;74;1933;-58
2021/11/27 10:19:12;;;;;;;;;;;23.10;49.70;;;;;;1580305;74;708;-56
2021/11/27 10:21:15;;;;;;;;;;;23.10;49.30;;;;;;1580082;74;760;-57
2021/11/27 10:23:16;;;;;;;;;;;23.10;48.80;;;;;;1581099;74;762;-60
2021/11/27 10:25:22;;;;;;;;;;;23.00;48.10;;;;;;1564389;75;719;-59
2021/11/27 10:27:28;;;;;;;;;;;23.00;47.60;;;;;;1579037;74;1104;-59
2021/11/27 10:29:33;;;;;;;;;;;23.00;47.20;;;;;;1576208;74;779;-56
2021/11/27 10:31:34;;;;;;;;;;;22.90;46.70;;;;;;1573429;74;1655;-58
2021/11/27 10:33:39;;;;;;;;;;;23.00;46.50;;;;;;1579049;74;686;-56
2021/11/27 10:35:48;;;;;;;;;;;22.90;46.40;;;;;;1571967;75;1922;-59
2021/11/27 10:37:52;;;;;;;;;;;22.90;46.50;;;;;;1568241;76;727;-55
2021/11/27 10:39:57;;;;;;;;;;;22.90;46.50;;;;;;1568171;75;748;-60
2021/11/27 10:42:01;;;;;;;;;;;22.90;46.70;;;;;;1568330;76;656;-59
2021/11/27 10:44:04;;;;;;;;;;;22.90;46.30;;;;;;1580229;74;745;-56
2021/11/27 10:46:06;;;;;;;;;;;22.80;46.00;;;;;;1581170;75;1131;-59
2021/11/27 10:48:11;;;;;;;;;;;22.90;45.90;;;;;;1581321;75;765;-59
2021/11/27 10:50:18;;;;;;;;;;;22.90;45.70;;;;;;1580432;74;713;-57
2021/11/27 10:52:18;;;;;;;;;;;22.70;45.50;;;;;;1580928;75;1626;-56
2021/11/27 10:54:20;;;;;;;;;;;22.70;45.50;;;;;;1580920;74;788;-59
2021/11/27 10:56:22;;;;;;;;;;;22.70;45.40;;;;;;1580215;74;1938;-58
2021/11/27 10:58:24;;;;;;;;;;;22.80;45.30;;;;;;1581150;75;719;-57
2021/11/27 11:00:27;;;;;;;;;;;22.80;45.40;;;;;;1580034;74;736;-56
2021/11/27 11:02:29;;;;;;;;;;;22.80;45.30;;;;;;1580526;75;796;-60
2021/11/27 11:04:31;;;;;;;;;;;22.80;45.50;;;;;;1576917;74;779;-59
2021/11/27 11:06:33;;;;;;;;;;;22.70;45.50;;;;;;1580171;74;1124;-59
2021/11/27 11:08:35;;;;;;;;;;;22.80;45.40;;;;;;1580102;74;749;-58
2021/11/27 11:10:37;;;;;;;;;;;22.80;45.20;;;;;;1579989;74;675;-59
2021/11/27 11:12:44;;;;;;;;;;;22.80;45.10;;;;;;1580526;74;803;-57
2021/11/27 11:14:46;;;;;;;;;;;22.80;44.90;;;;;;1577990;74;742;-60
2021/11/27 11:16:55;;;;;;;;;;;22.80;45.00;;;;;;1580224;74;1931;-60
2021/11/27 11:19:15;;;;;;;;;;;22.80;44.90;;;;;;1580461;74;741;-57
2021/11/27 11:21:17;;;;;;;;;;;22.70;45.00;;;;;;1579749;74;767;-57
2021/11/27 11:23:24;;;;;;;;;;;22.70;45.00;;;;;;1581195;74;933;-57
2021/11/27 11:25:25;;;;;;;;;;;22.80;45.00;;;;;;1576201;74;726;-59
2021/11/27 11:27:35;;;;;;;;;;;22.80;45.00;;;;;;1574659;74;1104;-57
2021/11/27 11:29:41;;;;;;;;;;;22.70;45.00;;;;;;1578807;75;816;-58
2021/11/27 11:31:43;;;;;;;;;;;22.70;45.00;;;;;;1559456;75;1418;-59
2021/11/27 11:33:47;;;;;;;;;;;22.80;45.00;;;;;;1559787;76;776;-59
2021/11/27 11:35:49;;;;;;;;;;;22.70;45.00;;;;;;1568186;74;1912;-57
2021/11/27 11:37:51;;;;;;;;;;;22.70;45.40;;;;;;1582206;74;743;-58
2021/11/27 11:39:53;;;;;;;;;;;22.80;45.50;;;;;;1598765;74;795;-58
2021/11/27 11:41:55;;;;;;;;;;;22.80;45.50;;;;;;1583500;74;771;-59
2021/11/27 11:43:57;;;;;;;;;;;22.70;45.50;;;;;;1579971;74;863;-58
2021/11/27 11:45:59;;;;;;;;;;;22.70;45.80;;;;;;1579243;74;1164;-57
2021/11/27 11:48:01;;;;;;;;;;;22.60;46.30;;;;;;1584307;74;801;-54
2021/11/27 11:50:04;;;;;;;;;;;22.60;46.40;;;;;;1582002;74;739;-58
2021/11/27 11:52:08;;;;;;;;;;;22.70;46.00;;;;;;1596010;74;725;-58
2021/11/27 11:54:10;;;;;;;;;;;22.60;45.60;;;;;;1593724;74;680;-58
2021/11/27 11:56:12;;;;;;;;;;;22.60;45.80;;;;;;1580874;75;1935;-58
2021/11/27 11:58:17;;;;;;;;;;;22.50;46.40;;;;;;1581072;75;662;-55
2021/11/27 12:00:32;;;;;;;;;;;22.50;46.70;;;;;;1579446;75;1845;-58
2021/11/27 12:02:33;;;;;;;;;;;22.50;47.00;;;;;;1579851;75;709;-54
2021/11/27 12:04:35;;;;;;;;;;;22.50;47.30;;;;;;1602265;74;754;-58
2021/11/27 12:06:38;;;;;;;;;;;22.40;47.40;;;;;;1608087;73;1178;-58
2021/11/27 12:08:55;;;;;;;;;;;22.40;47.60;;;;;;1608720;74;738;-58
2021/11/27 12:10:54;;;;;;;;;;;22.40;47.80;;;;;;1607782;73;1335;-55
2021/11/27 12:13:09;;;;;;;;;;;22.40;48.00;;;;;;1603009;74;755;-58